Hardwick, MA (01037)

8:39 AM EST on November 28, 2014 (GMT -0500)
45 fuller rd barre,ma, 01005 | Change Station
CLOSE
Current Station
Personal Weather Station
Location: Barre, MA
Elevation: 994 ft
Nearby Weather Stations

Elev 994 ft 42.40 °N, 72.14 °W | Updated 36 seconds ago

Mostly Cloudy
Mostly Cloudy
25.9 °F
Feels Like 26 °F
N
0.0
Wind Variable Wind from NNW
Gusts 0.0 mph

Today
High -- | Low -- °F
--% Chance of Precip.
Yesterday
High -- | Low -- °F
Precip. -- in
6:54 AM 4:18 PM
Waxing Crescent, 40% visible
Pressure 30.06 in
Visibility 10.0 miles
Clouds Mostly Cloudy 7500 ft
Windchill 26 °F
Dew Point 24 °F
Humidity 94%
Rainfall 0.00 in
Snow Depth Not available.
UV 0.0 out of 12
Pollen .10 out of 12
Air Quality Not available.
Flu Activity Not available.
METAR KORH 281254Z 32007KT 10SM BKN075 M04/M06 A3001 RMK AO2 SLP177 T10391061

More Conditions Fewer Conditions

Pressure 30.06 in
Visibility 10.0 miles
Clouds Mostly Cloudy 7500 ft
Windchill 26 °F
Dew Point 24 °F
Humidity 94%
Rainfall 0.00 in
Snow Depth Not available.
UV 0.0 out of 12
Pollen .10 out of 12
Air Quality Not available.
Flu Activity Not available.
METAR KORH 281254Z 32007KT 10SM BKN075 M04/M06 A3001 RMK AO2 SLP177 T10391061

More Conditions Fewer Conditions

10-Day Weather Forecast

Almanac

Astronomy

Nov. 28, 2014 Rise Set
Actual Time
Civil Twilight
Nautical Twilight
Astronomical Twilight
Moon
Length of Visible Light
Length of Day
Tomorrow will be .
, % of the Moon is Illuminated

Today's Extremes

State Highs State Lows

Community

WunderPhotos

Upload Photos

1,774,210 photos uploaded!

WunderBlogs® & News

Nearby

Air Quality

  Air Quality AQ Index Pollutant
Not available.

Snow Depth

Station Depth Elevation

Earthquake Activity

City Distance Mag. Time & Date
Minimum magnitude displayed is 2.5.

Coastal Water Temperatures

Place Temperature

Nearby Weather Stations